sensor_id;sensor_type;location;lat;lon;timestamp;P1;durP1;ratioP1;P2;durP2;ratioP2
37455;SDS011;23316;50.718;7.328;2024-01-07T00:02:07;7.75;;;6.15;;
37455;SDS011;23316;50.718;7.328;2024-01-07T00:04:34;8.43;;;6.25;;
37455;SDS011;23316;50.718;7.328;2024-01-07T00:07:03;7.38;;;6.18;;
37455;SDS011;23316;50.718;7.328;2024-01-07T00:09:30;6.15;;;5.32;;
37455;SDS011;23316;50.718;7.328;2024-01-07T00:11:58;7.30;;;6.00;;
37455;SDS011;23316;50.718;7.328;2024-01-07T00:14:25;7.28;;;5.72;;
37455;SDS011;23316;50.718;7.328;2024-01-07T00:16:52;8.88;;;6.07;;
37455;SDS011;23316;50.718;7.328;2024-01-07T00:19:21;8.20;;;6.30;;
37455;SDS011;23316;50.718;7.328;2024-01-07T00:21:48;7.90;;;6.68;;
37455;SDS011;23316;50.718;7.328;2024-01-07T00:24:16;8.45;;;6.20;;
37455;SDS011;23316;50.718;7.328;2024-01-07T00:26:43;7.45;;;6.20;;
37455;SDS011;23316;50.718;7.328;2024-01-07T00:29:10;7.68;;;6.35;;
37455;SDS011;23316;50.718;7.328;2024-01-07T00:31:37;7.43;;;6.60;;
37455;SDS011;23316;50.718;7.328;2024-01-07T00:34:05;7.45;;;6.45;;
37455;SDS011;23316;50.718;7.328;2024-01-07T00:40:12;9.48;;;7.00;;
37455;SDS011;23316;50.718;7.328;2024-01-07T00:42:39;8.52;;;7.03;;
37455;SDS011;23316;50.718;7.328;2024-01-07T00:45:07;7.50;;;6.70;;
37455;SDS011;23316;50.718;7.328;2024-01-07T00:47:35;8.48;;;6.60;;
37455;SDS011;23316;50.718;7.328;2024-01-07T00:50:02;8.15;;;6.60;;
37455;SDS011;23316;50.718;7.328;2024-01-07T00:52:30;8.13;;;6.97;;
37455;SDS011;23316;50.718;7.328;2024-01-07T00:54:57;7.90;;;6.82;;
37455;SDS011;23316;50.718;7.328;2024-01-07T00:57:26;8.70;;;7.18;;
37455;SDS011;23316;50.718;7.328;2024-01-07T00:59:53;8.25;;;7.00;;
37455;SDS011;23316;50.718;7.328;2024-01-07T01:02:21;8.60;;;6.95;;
37455;SDS011;23316;50.718;7.328;2024-01-07T01:04:48;7.72;;;6.95;;
37455;SDS011;23316;50.718;7.328;2024-01-07T01:07:15;7.57;;;6.72;;
37455;SDS011;23316;50.718;7.328;2024-01-07T01:12:19;8.27;;;6.88;;
37455;SDS011;23316;50.718;7.328;2024-01-07T01:14:51;10.90;;;6.57;;
37455;SDS011;23316;50.718;7.328;2024-01-07T01:17:18;7.80;;;6.57;;
37455;SDS011;23316;50.718;7.328;2024-01-07T01:19:45;8.60;;;6.70;;
37455;SDS011;23316;50.718;7.328;2024-01-07T01:22:13;7.53;;;6.25;;
37455;SDS011;23316;50.718;7.328;2024-01-07T01:24:40;8.07;;;6.80;;
37455;SDS011;23316;50.718;7.328;2024-01-07T01:27:07;8.60;;;7.00;;
37455;SDS011;23316;50.718;7.328;2024-01-07T01:29:36;8.27;;;6.68;;
37455;SDS011;23316;50.718;7.328;2024-01-07T01:32:05;8.15;;;6.65;;
37455;SDS011;23316;50.718;7.328;2024-01-07T01:34:32;8.55;;;6.80;;
37455;SDS011;23316;50.718;7.328;2024-01-07T01:36:59;8.07;;;6.88;;
37455;SDS011;23316;50.718;7.328;2024-01-07T01:39:27;8.57;;;6.43;;
37455;SDS011;23316;50.718;7.328;2024-01-07T01:41:55;8.32;;;6.55;;
37455;SDS011;23316;50.718;7.328;2024-01-07T01:44:23;7.68;;;6.82;;
37455;SDS011;23316;50.718;7.328;2024-01-07T01:46:52;7.50;;;6.70;;
37455;SDS011;23316;50.718;7.328;2024-01-07T01:49:21;6.53;;;5.55;;
37455;SDS011;23316;50.718;7.328;2024-01-07T01:51:49;9.80;;;6.15;;
37455;SDS011;23316;50.718;7.328;2024-01-07T01:54:18;8.18;;;6.65;;
37455;SDS011;23316;50.718;7.328;2024-01-07T01:56:46;7.05;;;6.35;;
37455;SDS011;23316;50.718;7.328;2024-01-07T01:59:14;6.55;;;5.75;;
37455;SDS011;23316;50.718;7.328;2024-01-07T02:01:41;6.78;;;5.82;;
37455;SDS011;23316;50.718;7.328;2024-01-07T02:04:09;7.22;;;5.93;;
37455;SDS011;23316;50.718;7.328;2024-01-07T02:06:37;8.27;;;6.57;;
37455;SDS011;23316;50.718;7.328;2024-01-07T02:09:05;6.60;;;5.55;;
37455;SDS011;23316;50.718;7.328;2024-01-07T02:11:32;6.53;;;5.75;;
37455;SDS011;23316;50.718;7.328;2024-01-07T02:13:59;6.20;;;5.15;;
37455;SDS011;23316;50.718;7.328;2024-01-07T02:16:26;7.47;;;6.10;;
37455;SDS011;23316;50.718;7.328;2024-01-07T02:19:11;6.07;;;5.43;;
37455;SDS011;23316;50.718;7.328;2024-01-07T02:21:40;7.45;;;6.15;;
37455;SDS011;23316;50.718;7.328;2024-01-07T02:24:14;7.60;;;5.63;;
37455;SDS011;23316;50.718;7.328;2024-01-07T02:26:42;6.32;;;5.05;;
37455;SDS011;23316;50.718;7.328;2024-01-07T02:29:09;6.88;;;5.60;;
37455;SDS011;23316;50.718;7.328;2024-01-07T02:31:36;6.40;;;5.40;;
37455;SDS011;23316;50.718;7.328;2024-01-07T02:34:03;5.93;;;5.28;;
37455;SDS011;23316;50.718;7.328;2024-01-07T02:36:30;5.40;;;4.85;;
37455;SDS011;23316;50.718;7.328;2024-01-07T02:38:58;7.32;;;5.60;;
37455;SDS011;23316;50.718;7.328;2024-01-07T02:41:27;5.53;;;4.85;;
37455;SDS011;23316;50.718;7.328;2024-01-07T02:43:55;6.10;;;5.03;;
37455;SDS011;23316;50.718;7.328;2024-01-07T02:46:23;7.13;;;5.50;;
37455;SDS011;23316;50.718;7.328;2024-01-07T02:48:51;6.28;;;5.20;;
37455;SDS011;23316;50.718;7.328;2024-01-07T02:51:18;6.70;;;5.30;;
37455;SDS011;23316;50.718;7.328;2024-01-07T02:53:46;6.90;;;5.45;;
37455;SDS011;23316;50.718;7.328;2024-01-07T02:56:13;5.90;;;5.00;;
37455;SDS011;23316;50.718;7.328;2024-01-07T02:58:41;6.75;;;5.38;;
37455;SDS011;23316;50.718;7.328;2024-01-07T03:01:09;6.43;;;5.30;;
37455;SDS011;23316;50.718;7.328;2024-01-07T03:03:36;6.15;;;5.03;;
37455;SDS011;23316;50.718;7.328;2024-01-07T03:06:04;6.30;;;5.30;;
37455;SDS011;23316;50.718;7.328;2024-01-07T03:08:31;6.25;;;5.20;;
37455;SDS011;23316;50.718;7.328;2024-01-07T03:10:58;6.28;;;5.13;;
37455;SDS011;23316;50.718;7.328;2024-01-07T03:13:31;6.45;;;4.80;;
37455;SDS011;23316;50.718;7.328;2024-01-07T03:15:59;5.80;;;4.75;;
37455;SDS011;23316;50.718;7.328;2024-01-07T03:18:27;6.03;;;5.13;;
37455;SDS011;23316;50.718;7.328;2024-01-07T03:20:54;6.25;;;4.80;;
37455;SDS011;23316;50.718;7.328;2024-01-07T03:23:21;5.38;;;4.75;;
37455;SDS011;23316;50.718;7.328;2024-01-07T03:25:48;5.22;;;4.43;;
37455;SDS011;23316;50.718;7.328;2024-01-07T03:28:16;5.30;;;4.35;;
37455;SDS011;23316;50.718;7.328;2024-01-07T03:30:43;6.30;;;4.60;;
37455;SDS011;23316;50.718;7.328;2024-01-07T03:33:11;6.30;;;5.00;;
37455;SDS011;23316;50.718;7.328;2024-01-07T03:35:39;6.35;;;5.07;;
37455;SDS011;23316;50.718;7.328;2024-01-07T03:38:06;5.72;;;4.65;;
37455;SDS011;23316;50.718;7.328;2024-01-07T03:40:33;5.85;;;4.82;;
37455;SDS011;23316;50.718;7.328;2024-01-07T03:43:00;5.38;;;4.78;;
37455;SDS011;23316;50.718;7.328;2024-01-07T03:45:27;4.97;;;4.40;;
37455;SDS011;23316;50.718;7.328;2024-01-07T03:47:55;5.15;;;4.38;;
37455;SDS011;23316;50.718;7.328;2024-01-07T03:50:23;4.82;;;4.32;;
37455;SDS011;23316;50.718;7.328;2024-01-07T03:52:50;6.00;;;4.47;;
37455;SDS011;23316;50.718;7.328;2024-01-07T03:55:18;5.47;;;4.57;;
37455;SDS011;23316;50.718;7.328;2024-01-07T03:57:45;6.93;;;4.55;;
37455;SDS011;23316;50.718;7.328;2024-01-07T04:00:12;6.38;;;4.57;;
37455;SDS011;23316;50.718;7.328;2024-01-07T04:02:40;4.35;;;3.78;;
37455;SDS011;23316;50.718;7.328;2024-01-07T04:05:07;4.68;;;4.00;;
37455;SDS011;23316;50.718;7.328;2024-01-07T04:07:36;4.43;;;3.88;;
37455;SDS011;23316;50.718;7.328;2024-01-07T04:10:04;4.10;;;3.60;;
37455;SDS011;23316;50.718;7.328;2024-01-07T04:12:31;4.10;;;3.70;;
37455;SDS011;23316;50.718;7.328;2024-01-07T04:14:58;4.68;;;4.15;;
37455;SDS011;23316;50.718;7.328;2024-01-07T04:17:25;4.45;;;3.60;;
37455;SDS011;23316;50.718;7.328;2024-01-07T04:19:53;5.60;;;4.20;;
37455;SDS011;23316;50.718;7.328;2024-01-07T04:22:20;3.83;;;3.33;;
37455;SDS011;23316;50.718;7.328;2024-01-07T04:24:48;4.28;;;3.53;;
37455;SDS011;23316;50.718;7.328;2024-01-07T04:27:15;4.30;;;3.50;;
37455;SDS011;23316;50.718;7.328;2024-01-07T04:29:42;4.18;;;3.78;;
37455;SDS011;23316;50.718;7.328;2024-01-07T04:32:10;4.75;;;3.55;;
37455;SDS011;23316;50.718;7.328;2024-01-07T04:34:37;3.90;;;3.50;;
37455;SDS011;23316;50.718;7.328;2024-01-07T04:37:04;2.97;;;2.67;;
37455;SDS011;23316;50.718;7.328;2024-01-07T04:39:31;22.42;;;3.75;;
37455;SDS011;23316;50.718;7.328;2024-01-07T04:41:59;3.92;;;3.05;;
37455;SDS011;23316;50.718;7.328;2024-01-07T04:44:27;19.63;;;3.10;;
37455;SDS011;23316;50.718;7.328;2024-01-07T04:46:54;21.98;;;4.15;;
37455;SDS011;23316;50.718;7.328;2024-01-07T04:49:21;8.85;;;3.45;;
37455;SDS011;23316;50.718;7.328;2024-01-07T04:51:48;6.82;;;2.83;;
37455;SDS011;23316;50.718;7.328;2024-01-07T04:54:16;10.75;;;3.50;;
37455;SDS011;23316;50.718;7.328;2024-01-07T04:56:44;4.57;;;3.00;;
37455;SDS011;23316;50.718;7.328;2024-01-07T04:59:12;9.45;;;3.20;;
37455;SDS011;23316;50.718;7.328;2024-01-07T05:01:39;3.35;;;3.00;;
37455;SDS011;23316;50.718;7.328;2024-01-07T05:04:07;4.28;;;3.40;;
37455;SDS011;23316;50.718;7.328;2024-01-07T05:06:34;10.80;;;3.00;;
37455;SDS011;23316;50.718;7.328;2024-01-07T05:09:02;5.32;;;3.10;;
37455;SDS011;23316;50.718;7.328;2024-01-07T05:11:29;5.53;;;2.95;;
37455;SDS011;23316;50.718;7.328;2024-01-07T05:13:56;4.80;;;3.05;;
37455;SDS011;23316;50.718;7.328;2024-01-07T05:16:25;5.00;;;3.17;;
37455;SDS011;23316;50.718;7.328;2024-01-07T05:18:53;4.97;;;2.90;;
37455;SDS011;23316;50.718;7.328;2024-01-07T05:21:20;4.53;;;3.40;;
37455;SDS011;23316;50.718;7.328;2024-01-07T05:23:47;3.72;;;2.97;;
37455;SDS011;23316;50.718;7.328;2024-01-07T05:26:15;5.10;;;3.35;;
37455;SDS011;23316;50.718;7.328;2024-01-07T05:28:42;4.55;;;3.30;;
37455;SDS011;23316;50.718;7.328;2024-01-07T05:31:13;6.22;;;3.60;;
37455;SDS011;23316;50.718;7.328;2024-01-07T05:33:42;5.50;;;3.40;;
37455;SDS011;23316;50.718;7.328;2024-01-07T05:36:09;4.25;;;3.10;;
37455;SDS011;23316;50.718;7.328;2024-01-07T05:38:37;5.07;;;3.50;;
37455;SDS011;23316;50.718;7.328;2024-01-07T05:41:04;4.18;;;3.33;;
37455;SDS011;23316;50.718;7.328;2024-01-07T05:43:31;4.07;;;3.50;;
37455;SDS011;23316;50.718;7.328;2024-01-07T05:45:58;3.72;;;3.08;;
37455;SDS011;23316;50.718;7.328;2024-01-07T05:48:26;4.07;;;3.05;;
37455;SDS011;23316;50.718;7.328;2024-01-07T05:50:54;4.15;;;3.45;;
37455;SDS011;23316;50.718;7.328;2024-01-07T05:53:21;3.85;;;3.10;;
37455;SDS011;23316;50.718;7.328;2024-01-07T05:55:48;5.07;;;4.00;;
37455;SDS011;23316;50.718;7.328;2024-01-07T05:58:15;4.38;;;3.55;;
37455;SDS011;23316;50.718;7.328;2024-01-07T06:00:43;7.07;;;3.67;;
37455;SDS011;23316;50.718;7.328;2024-01-07T06:03:10;11.02;;;3.50;;
37455;SDS011;23316;50.718;7.328;2024-01-07T06:05:37;12.98;;;3.70;;
37455;SDS011;23316;50.718;7.328;2024-01-07T06:08:06;4.82;;;3.58;;
37455;SDS011;23316;50.718;7.328;2024-01-07T06:10:34;4.88;;;4.13;;
37455;SDS011;23316;50.718;7.328;2024-01-07T06:13:01;17.17;;;3.90;;
37455;SDS011;23316;50.718;7.328;2024-01-07T06:15:29;6.38;;;4.20;;
37455;SDS011;23316;50.718;7.328;2024-01-07T06:17:56;33.17;;;19.92;;
37455;SDS011;23316;50.718;7.328;2024-01-07T06:20:23;90.05;;;53.38;;
37455;SDS011;23316;50.718;7.328;2024-01-07T06:22:50;78.38;;;42.50;;
37455;SDS011;23316;50.718;7.328;2024-01-07T06:25:19;40.33;;;24.88;;
37455;SDS011;23316;50.718;7.328;2024-01-07T06:27:46;37.53;;;20.33;;
37455;SDS011;23316;50.718;7.328;2024-01-07T06:30:14;25.65;;;16.50;;
37455;SDS011;23316;50.718;7.328;2024-01-07T06:32:43;28.15;;;15.30;;
37455;SDS011;23316;50.718;7.328;2024-01-07T06:35:10;23.25;;;15.02;;
37455;SDS011;23316;50.718;7.328;2024-01-07T06:37:37;22.73;;;14.55;;
37455;SDS011;23316;50.718;7.328;2024-01-07T06:40:04;21.65;;;13.45;;
37455;SDS011;23316;50.718;7.328;2024-01-07T06:42:34;19.08;;;12.77;;
37455;SDS011;23316;50.718;7.328;2024-01-07T06:45:02;18.45;;;12.20;;
37455;SDS011;23316;50.718;7.328;2024-01-07T06:47:29;17.55;;;11.68;;
37455;SDS011;23316;50.718;7.328;2024-01-07T06:49:56;16.83;;;11.63;;
37455;SDS011;23316;50.718;7.328;2024-01-07T06:52:24;15.40;;;10.40;;
37455;SDS011;23316;50.718;7.328;2024-01-07T06:54:50;15.93;;;10.30;;
37455;SDS011;23316;50.718;7.328;2024-01-07T06:57:17;14.85;;;9.63;;
37455;SDS011;23316;50.718;7.328;2024-01-07T06:59:46;14.05;;;9.75;;
37455;SDS011;23316;50.718;7.328;2024-01-07T07:02:13;66.82;;;38.30;;
37455;SDS011;23316;50.718;7.328;2024-01-07T07:04:40;96.53;;;56.10;;
37455;SDS011;23316;50.718;7.328;2024-01-07T07:07:07;66.68;;;38.05;;
37455;SDS011;23316;50.718;7.328;2024-01-07T07:09:34;44.00;;;27.80;;
37455;SDS011;23316;50.718;7.328;2024-01-07T07:12:02;49.95;;;29.95;;
37455;SDS011;23316;50.718;7.328;2024-01-07T07:14:31;49.35;;;29.65;;
37455;SDS011;23316;50.718;7.328;2024-01-07T07:17:00;35.83;;;23.00;;
37455;SDS011;23316;50.718;7.328;2024-01-07T07:19:27;33.95;;;19.52;;
37455;SDS011;23316;50.718;7.328;2024-01-07T07:21:55;37.72;;;19.08;;
37455;SDS011;23316;50.718;7.328;2024-01-07T07:24:23;26.95;;;17.20;;
37455;SDS011;23316;50.718;7.328;2024-01-07T07:26:50;33.38;;;17.90;;
37455;SDS011;23316;50.718;7.328;2024-01-07T07:29:17;26.10;;;17.02;;
37455;SDS011;23316;50.718;7.328;2024-01-07T07:31:45;27.00;;;16.25;;
37455;SDS011;23316;50.718;7.328;2024-01-07T07:34:13;30.55;;;17.02;;
37455;SDS011;23316;50.718;7.328;2024-01-07T07:36:40;22.70;;;15.18;;
37455;SDS011;23316;50.718;7.328;2024-01-07T07:39:10;21.50;;;14.65;;
37455;SDS011;23316;50.718;7.328;2024-01-07T07:41:39;20.08;;;13.40;;
37455;SDS011;23316;50.718;7.328;2024-01-07T07:44:06;19.10;;;12.45;;
37455;SDS011;23316;50.718;7.328;2024-01-07T07:46:33;17.42;;;11.38;;
37455;SDS011;23316;50.718;7.328;2024-01-07T07:49:00;17.08;;;11.10;;
37455;SDS011;23316;50.718;7.328;2024-01-07T07:51:29;14.85;;;10.38;;
37455;SDS011;23316;50.718;7.328;2024-01-07T07:53:56;14.43;;;9.63;;
37455;SDS011;23316;50.718;7.328;2024-01-07T07:56:23;16.10;;;10.45;;
37455;SDS011;23316;50.718;7.328;2024-01-07T07:58:51;12.40;;;8.80;;
37455;SDS011;23316;50.718;7.328;2024-01-07T08:01:18;16.27;;;9.18;;
37455;SDS011;23316;50.718;7.328;2024-01-07T08:03:45;16.15;;;9.82;;
37455;SDS011;23316;50.718;7.328;2024-01-07T08:06:12;13.82;;;8.00;;
37455;SDS011;23316;50.718;7.328;2024-01-07T08:08:41;10.40;;;7.18;;
37455;SDS011;23316;50.718;7.328;2024-01-07T08:11:09;11.48;;;8.02;;
37455;SDS011;23316;50.718;7.328;2024-01-07T08:13:36;13.70;;;7.93;;
37455;SDS011;23316;50.718;7.328;2024-01-07T08:16:04;10.13;;;7.25;;
37455;SDS011;23316;50.718;7.328;2024-01-07T08:18:32;17.35;;;7.15;;
37455;SDS011;23316;50.718;7.328;2024-01-07T08:20:59;20.83;;;7.85;;
37455;SDS011;23316;50.718;7.328;2024-01-07T08:23:26;21.85;;;7.65;;
37455;SDS011;23316;50.718;7.328;2024-01-07T08:25:56;16.77;;;7.78;;
37455;SDS011;23316;50.718;7.328;2024-01-07T08:28:23;17.50;;;7.15;;
37455;SDS011;23316;50.718;7.328;2024-01-07T08:30:50;15.25;;;7.05;;
37455;SDS011;23316;50.718;7.328;2024-01-07T08:33:19;20.77;;;7.43;;
37455;SDS011;23316;50.718;7.328;2024-01-07T08:35:46;10.70;;;6.18;;
37455;SDS011;23316;50.718;7.328;2024-01-07T08:38:13;9.43;;;6.15;;
37455;SDS011;23316;50.718;7.328;2024-01-07T08:40:41;12.18;;;6.70;;
37455;SDS011;23316;50.718;7.328;2024-01-07T08:43:09;10.43;;;6.25;;
37455;SDS011;23316;50.718;7.328;2024-01-07T08:45:37;11.38;;;5.72;;
37455;SDS011;23316;50.718;7.328;2024-01-07T08:48:04;11.13;;;6.18;;
37455;SDS011;23316;50.718;7.328;2024-01-07T08:50:32;12.05;;;6.45;;
37455;SDS011;23316;50.718;7.328;2024-01-07T08:52:59;10.27;;;5.68;;
37455;SDS011;23316;50.718;7.328;2024-01-07T08:55:27;8.02;;;5.38;;
37455;SDS011;23316;50.718;7.328;2024-01-07T08:57:54;9.48;;;6.15;;
37455;SDS011;23316;50.718;7.328;2024-01-07T09:00:23;9.13;;;5.68;;
37455;SDS011;23316;50.718;7.328;2024-01-07T09:02:52;11.35;;;5.88;;
37455;SDS011;23316;50.718;7.328;2024-01-07T09:05:19;7.88;;;5.53;;
37455;SDS011;23316;50.718;7.328;2024-01-07T09:07:46;13.43;;;5.60;;
37455;SDS011;23316;50.718;7.328;2024-01-07T09:10:14;8.07;;;5.22;;
37455;SDS011;23316;50.718;7.328;2024-01-07T09:12:41;7.50;;;4.78;;
37455;SDS011;23316;50.718;7.328;2024-01-07T09:15:08;9.90;;;5.00;;
37455;SDS011;23316;50.718;7.328;2024-01-07T09:17:37;7.53;;;4.70;;
37455;SDS011;23316;50.718;7.328;2024-01-07T09:20:05;6.97;;;4.40;;
37455;SDS011;23316;50.718;7.328;2024-01-07T09:22:33;6.88;;;4.68;;
37455;SDS011;23316;50.718;7.328;2024-01-07T09:25:01;6.25;;;4.78;;
37455;SDS011;23316;50.718;7.328;2024-01-07T09:27:29;7.25;;;4.30;;
37455;SDS011;23316;50.718;7.328;2024-01-07T09:29:56;6.07;;;4.35;;
37455;SDS011;23316;50.718;7.328;2024-01-07T09:32:24;5.55;;;4.63;;
37455;SDS011;23316;50.718;7.328;2024-01-07T09:34:52;7.05;;;4.78;;
37455;SDS011;23316;50.718;7.328;2024-01-07T09:37:20;6.10;;;4.68;;
37455;SDS011;23316;50.718;7.328;2024-01-07T09:39:47;5.85;;;4.30;;
37455;SDS011;23316;50.718;7.328;2024-01-07T09:42:16;5.47;;;4.20;;
37455;SDS011;23316;50.718;7.328;2024-01-07T09:44:45;6.50;;;4.10;;
37455;SDS011;23316;50.718;7.328;2024-01-07T09:47:13;10.73;;;4.45;;
37455;SDS011;23316;50.718;7.328;2024-01-07T09:49:41;72.05;;;40.50;;
37455;SDS011;23316;50.718;7.328;2024-01-07T09:52:11;120.82;;;65.13;;
37455;SDS011;23316;50.718;7.328;2024-01-07T09:54:38;69.40;;;40.20;;
37455;SDS011;23316;50.718;7.328;2024-01-07T09:57:07;44.95;;;26.88;;
37455;SDS011;23316;50.718;7.328;2024-01-07T09:59:35;41.50;;;22.90;;
37455;SDS011;23316;50.718;7.328;2024-01-07T10:02:02;31.13;;;18.58;;
37455;SDS011;23316;50.718;7.328;2024-01-07T10:04:30;27.77;;;17.95;;
37455;SDS011;23316;50.718;7.328;2024-01-07T10:06:57;29.50;;;15.45;;
37455;SDS011;23316;50.718;7.328;2024-01-07T10:09:29;25.77;;;16.27;;
37455;SDS011;23316;50.718;7.328;2024-01-07T10:11:59;39.13;;;17.45;;
37455;SDS011;23316;50.718;7.328;2024-01-07T10:14:26;26.30;;;15.05;;
37455;SDS011;23316;50.718;7.328;2024-01-07T10:16:53;22.73;;;13.38;;
37455;SDS011;23316;50.718;7.328;2024-01-07T10:19:21;23.30;;;13.10;;
37455;SDS011;23316;50.718;7.328;2024-01-07T10:21:58;20.08;;;12.23;;
37455;SDS011;23316;50.718;7.328;2024-01-07T10:24:26;20.80;;;12.65;;
37455;SDS011;23316;50.718;7.328;2024-01-07T10:27:02;30.60;;;12.55;;
37455;SDS011;23316;50.718;7.328;2024-01-07T10:29:30;37.00;;;12.48;;
37455;SDS011;23316;50.718;7.328;2024-01-07T10:31:57;25.67;;;10.68;;
37455;SDS011;23316;50.718;7.328;2024-01-07T10:34:28;18.58;;;10.82;;
37455;SDS011;23316;50.718;7.328;2024-01-07T10:36:58;23.90;;;10.07;;
37455;SDS011;23316;50.718;7.328;2024-01-07T10:39:26;20.02;;;10.35;;
37455;SDS011;23316;50.718;7.328;2024-01-07T10:41:53;50.90;;;12.88;;
37455;SDS011;23316;50.718;7.328;2024-01-07T10:44:25;38.00;;;10.13;;
37455;SDS011;23316;50.718;7.328;2024-01-07T10:46:53;18.92;;;9.95;;
37455;SDS011;23316;50.718;7.328;2024-01-07T10:49:22;19.80;;;9.18;;
37455;SDS011;23316;50.718;7.328;2024-01-07T10:51:53;22.15;;;9.90;;
37455;SDS011;23316;50.718;7.328;2024-01-07T10:54:29;36.83;;;9.38;;
37455;SDS011;23316;50.718;7.328;2024-01-07T10:56:59;22.73;;;9.18;;
37455;SDS011;23316;50.718;7.328;2024-01-07T10:59:32;21.40;;;8.05;;
37455;SDS011;23316;50.718;7.328;2024-01-07T11:02:02;21.85;;;8.82;;
37455;SDS011;23316;50.718;7.328;2024-01-07T11:04:32;14.05;;;7.45;;
37455;SDS011;23316;50.718;7.328;2024-01-07T11:07:12;21.27;;;8.07;;
37455;SDS011;23316;50.718;7.328;2024-01-07T11:09:55;31.27;;;17.17;;
37455;SDS011;23316;50.718;7.328;2024-01-07T11:12:30;82.18;;;40.45;;
37455;SDS011;23316;50.718;7.328;2024-01-07T11:14:59;69.35;;;39.70;;
37455;SDS011;23316;50.718;7.328;2024-01-07T11:17:41;55.53;;;30.95;;
37455;SDS011;23316;50.718;7.328;2024-01-07T11:20:12;35.35;;;22.27;;
37455;SDS011;23316;50.718;7.328;2024-01-07T11:22:45;30.67;;;17.65;;
37455;SDS011;23316;50.718;7.328;2024-01-07T11:25:28;36.58;;;17.75;;
37455;SDS011;23316;50.718;7.328;2024-01-07T11:27:57;26.88;;;14.50;;
37455;SDS011;23316;50.718;7.328;2024-01-07T11:30:26;21.90;;;12.05;;
37455;SDS011;23316;50.718;7.328;2024-01-07T11:32:57;19.00;;;11.73;;
37455;SDS011;23316;50.718;7.328;2024-01-07T11:38:23;23.20;;;11.45;;
37455;SDS011;23316;50.718;7.328;2024-01-07T11:40:50;17.48;;;9.82;;
37455;SDS011;23316;50.718;7.328;2024-01-07T11:43:18;22.25;;;9.68;;
37455;SDS011;23316;50.718;7.328;2024-01-07T11:45:48;18.48;;;9.25;;
37455;SDS011;23316;50.718;7.328;2024-01-07T11:48:17;22.25;;;8.95;;
37455;SDS011;23316;50.718;7.328;2024-01-07T11:50:44;14.63;;;8.02;;
37455;SDS011;23316;50.718;7.328;2024-01-07T11:53:12;20.25;;;8.93;;
37455;SDS011;23316;50.718;7.328;2024-01-07T11:55:39;16.58;;;8.57;;
37455;SDS011;23316;50.718;7.328;2024-01-07T11:58:07;18.42;;;8.35;;
37455;SDS011;23316;50.718;7.328;2024-01-07T12:00:34;41.58;;;8.68;;
37455;SDS011;23316;50.718;7.328;2024-01-07T12:03:03;25.80;;;7.32;;
37455;SDS011;23316;50.718;7.328;2024-01-07T12:05:31;26.77;;;7.93;;
37455;SDS011;23316;50.718;7.328;2024-01-07T12:07:59;16.58;;;5.85;;
37455;SDS011;23316;50.718;7.328;2024-01-07T12:10:27;10.55;;;5.82;;
37455;SDS011;23316;50.718;7.328;2024-01-07T12:12:56;19.90;;;6.88;;
37455;SDS011;23316;50.718;7.328;2024-01-07T12:15:23;21.50;;;6.03;;
37455;SDS011;23316;50.718;7.328;2024-01-07T12:17:57;10.73;;;5.47;;
37455;SDS011;23316;50.718;7.328;2024-01-07T12:20:28;14.85;;;5.65;;
37455;SDS011;23316;50.718;7.328;2024-01-07T12:22:55;9.48;;;5.18;;
37455;SDS011;23316;50.718;7.328;2024-01-07T12:25:24;8.15;;;5.60;;
37455;SDS011;23316;50.718;7.328;2024-01-07T12:27:52;8.25;;;5.13;;
37455;SDS011;23316;50.718;7.328;2024-01-07T12:30:19;6.95;;;4.60;;
37455;SDS011;23316;50.718;7.328;2024-01-07T12:32:47;6.93;;;4.43;;
37455;SDS011;23316;50.718;7.328;2024-01-07T12:35:17;7.28;;;4.22;;
37455;SDS011;23316;50.718;7.328;2024-01-07T12:37:47;6.82;;;4.20;;
37455;SDS011;23316;50.718;7.328;2024-01-07T12:40:15;5.30;;;3.78;;
37455;SDS011;23316;50.718;7.328;2024-01-07T12:42:42;9.68;;;4.82;;
37455;SDS011;23316;50.718;7.328;2024-01-07T12:45:11;7.07;;;4.60;;
37455;SDS011;23316;50.718;7.328;2024-01-07T12:47:40;6.32;;;4.65;;
37455;SDS011;23316;50.718;7.328;2024-01-07T12:50:08;6.03;;;3.90;;
37455;SDS011;23316;50.718;7.328;2024-01-07T12:52:36;6.78;;;3.97;;
37455;SDS011;23316;50.718;7.328;2024-01-07T12:55:06;5.53;;;4.00;;
37455;SDS011;23316;50.718;7.328;2024-01-07T12:57:34;4.68;;;3.17;;
37455;SDS011;23316;50.718;7.328;2024-01-07T13:00:02;4.97;;;3.70;;
37455;SDS011;23316;50.718;7.328;2024-01-07T13:02:32;6.78;;;3.90;;
37455;SDS011;23316;50.718;7.328;2024-01-07T13:04:59;5.30;;;3.75;;
37455;SDS011;23316;50.718;7.328;2024-01-07T13:07:28;5.18;;;3.88;;
37455;SDS011;23316;50.718;7.328;2024-01-07T13:09:55;5.40;;;4.15;;
37455;SDS011;23316;50.718;7.328;2024-01-07T13:12:24;5.60;;;4.18;;
37455;SDS011;23316;50.718;7.328;2024-01-07T13:14:51;6.50;;;4.13;;
37455;SDS011;23316;50.718;7.328;2024-01-07T13:17:19;6.57;;;3.95;;
37455;SDS011;23316;50.718;7.328;2024-01-07T13:19:46;4.28;;;3.55;;
37455;SDS011;23316;50.718;7.328;2024-01-07T13:22:13;6.43;;;4.07;;
37455;SDS011;23316;50.718;7.328;2024-01-07T13:24:41;4.03;;;3.50;;
37455;SDS011;23316;50.718;7.328;2024-01-07T13:27:08;6.13;;;3.30;;
37455;SDS011;23316;50.718;7.328;2024-01-07T13:29:36;4.47;;;3.42;;
37455;SDS011;23316;50.718;7.328;2024-01-07T13:32:04;5.90;;;3.63;;
37455;SDS011;23316;50.718;7.328;2024-01-07T13:34:31;4.30;;;3.42;;
37455;SDS011;23316;50.718;7.328;2024-01-07T13:36:58;4.18;;;3.33;;
37455;SDS011;23316;50.718;7.328;2024-01-07T13:39:26;5.20;;;3.35;;
37455;SDS011;23316;50.718;7.328;2024-01-07T13:41:53;3.72;;;2.90;;
37455;SDS011;23316;50.718;7.328;2024-01-07T13:44:20;3.72;;;3.00;;
37455;SDS011;23316;50.718;7.328;2024-01-07T13:46:49;4.30;;;3.17;;
37455;SDS011;23316;50.718;7.328;2024-01-07T13:49:17;3.70;;;3.00;;
37455;SDS011;23316;50.718;7.328;2024-01-07T13:51:45;3.97;;;3.08;;
37455;SDS011;23316;50.718;7.328;2024-01-07T13:54:12;5.40;;;3.13;;
37455;SDS011;23316;50.718;7.328;2024-01-07T13:56:40;7.15;;;5.30;;
37455;SDS011;23316;50.718;7.328;2024-01-07T13:59:08;8.10;;;5.32;;
37455;SDS011;23316;50.718;7.328;2024-01-07T14:01:35;6.80;;;5.10;;
37455;SDS011;23316;50.718;7.328;2024-01-07T14:04:04;7.82;;;4.50;;
37455;SDS011;23316;50.718;7.328;2024-01-07T14:06:31;5.80;;;4.35;;
37455;SDS011;23316;50.718;7.328;2024-01-07T14:08:59;7.13;;;4.30;;
37455;SDS011;23316;50.718;7.328;2024-01-07T14:11:26;6.15;;;4.50;;
37455;SDS011;23316;50.718;7.328;2024-01-07T14:13:54;5.38;;;3.78;;
37455;SDS011;23316;50.718;7.328;2024-01-07T14:16:21;5.80;;;3.97;;
37455;SDS011;23316;50.718;7.328;2024-01-07T14:18:49;6.28;;;3.63;;
37455;SDS011;23316;50.718;7.328;2024-01-07T14:21:17;6.68;;;4.38;;
37455;SDS011;23316;50.718;7.328;2024-01-07T14:23:45;6.30;;;4.18;;
37455;SDS011;23316;50.718;7.328;2024-01-07T14:26:12;6.43;;;4.22;;
37455;SDS011;23316;50.718;7.328;2024-01-07T14:28:40;6.75;;;4.05;;
37455;SDS011;23316;50.718;7.328;2024-01-07T14:31:07;19.80;;;4.53;;
37455;SDS011;23316;50.718;7.328;2024-01-07T14:33:34;16.33;;;3.97;;
37455;SDS011;23316;50.718;7.328;2024-01-07T14:36:02;17.73;;;4.28;;
37455;SDS011;23316;50.718;7.328;2024-01-07T14:38:31;9.68;;;3.47;;
37455;SDS011;23316;50.718;7.328;2024-01-07T14:40:59;8.23;;;3.75;;
37455;SDS011;23316;50.718;7.328;2024-01-07T14:43:26;11.65;;;3.78;;
37455;SDS011;23316;50.718;7.328;2024-01-07T14:45:53;13.63;;;4.45;;
37455;SDS011;23316;50.718;7.328;2024-01-07T14:48:20;16.70;;;4.18;;
37455;SDS011;23316;50.718;7.328;2024-01-07T14:50:48;16.05;;;3.58;;
37455;SDS011;23316;50.718;7.328;2024-01-07T14:53:17;11.57;;;3.70;;
37455;SDS011;23316;50.718;7.328;2024-01-07T14:55:45;80.90;;;37.40;;